Time;durP1;ratioP1;P1;durP2;ratioP2;P2;SDS_P1;SDS_P2;PMS_P1;PMS_P2;Temp;Humidity;BMP_temperature;BMP_pressure;BME280_temperature;BME280_humidity;BME280_pressure;Samples;Min_cycle;Max_cycle;Signal;HPM_P1;HPM_P2
2022/01/13 00:00:14;;;;;;;32.63;8.13;;;;;;;13.28;66.78;103007.16;6078137;22;119789;-90
2022/01/13 00:02:40;;;;;;;37.70;8.00;;;;;;;13.27;66.98;102998.13;6081054;22;122836;-90
2022/01/13 00:05:09;;;;;;;36.28;8.02;;;;;;;13.13;67.98;102971.47;6078802;22;121004;-91
2022/01/13 00:07:37;;;;;;;28.40;7.40;;;;;;;13.00;68.54;102947.63;6052813;22;121707;-92
2022/01/13 00:10:24;;;;;;;32.70;7.93;;;;;;;13.04;67.13;102951.91;6080900;22;119403;-91
2022/01/13 00:13:01;;;;;;;30.65;7.82;;;;;;;12.89;68.26;102934.75;6078472;22;120532;-90
2022/01/13 00:18:29;;;;;;;32.08;7.35;;;;;;;13.10;67.79;102971.53;6078153;22;119857;-91
2022/01/13 00:21:17;;;;;;;32.90;7.53;;;;;;;13.37;67.95;103013.72;6077683;22;122155;-91
2022/01/13 00:23:49;;;;;;;41.58;8.00;;;;;;;13.36;65.97;103009.41;6077559;22;121784;-90
2022/01/13 00:26:21;;;;;;;33.33;7.93;;;;;;;13.33;66.76;102993.69;6082118;22;119503;-90
2022/01/13 00:28:49;;;;;;;39.75;8.15;;;;;;;13.37;66.94;103001.94;6052190;22;121058;-90
2022/01/13 00:31:27;;;;;;;28.42;7.25;;;;;;;13.30;67.61;102991.00;6077373;22;119221;-88
2022/01/13 00:33:58;;;;;;;43.30;13.02;;;;;;;13.32;68.12;102994.91;6077388;22;120274;-91
2022/01/13 00:36:31;;;;;;;63.25;25.42;;;;;;;13.37;68.35;102990.91;6100571;22;119711;-90
2022/01/13 00:38:58;;;;;;;40.40;12.75;;;;;;;13.34;67.72;102984.25;6127352;22;119970;-91
2022/01/13 00:41:30;;;;;;;44.13;11.23;;;;;;;13.12;66.52;102947.09;6052699;22;121105;-90
2022/01/13 00:44:00;;;;;;;38.22;10.10;;;;;;;13.37;66.27;102991.69;6051376;22;121469;-91
2022/01/13 00:46:28;;;;;;;45.63;13.90;;;;;;;13.29;66.16;102986.69;6058028;22;119323;-91
2022/01/13 00:48:58;;;;;;;36.67;8.60;;;;;;;13.35;66.22;102987.78;6100878;22;119429;-90
2022/01/13 00:51:25;;;;;;;36.53;8.85;;;;;;;13.40;66.40;102995.56;6052263;22;119602;-90
2022/01/13 00:53:51;;;;;;;40.00;9.40;;;;;;;13.41;66.34;103006.19;6101554;22;119504;-91
2022/01/13 00:56:17;;;;;;;40.92;8.70;;;;;;;13.38;65.54;103009.00;6076386;22;123052;-91
2022/01/13 00:58:43;;;;;;;38.17;8.40;;;;;;;13.37;65.06;103010.19;6076780;22;119374;-92
2022/01/13 01:01:09;;;;;;;31.13;7.50;;;;;;;13.06;65.44;102960.53;6102065;22;119349;-90
2022/01/13 01:03:39;;;;;;;34.70;7.57;;;;;;;13.21;66.38;103000.53;6077052;22;119348;-90
2022/01/13 01:06:09;;;;;;;34.50;8.02;;;;;;;13.20;66.28;102998.97;6101192;22;119234;-90
2022/01/13 01:08:35;;;;;;;35.85;7.32;;;;;;;13.16;66.19;102989.16;6056316;22;120866;-91
2022/01/13 01:11:25;;;;;;;28.98;6.97;;;;;;;13.17;67.28;103001.75;6052844;22;118605;-92
2022/01/13 01:13:51;;;;;;;39.08;7.57;;;;;;;13.12;66.84;102996.69;6053315;22;121377;-91
2022/01/13 01:16:18;;;;;;;35.67;7.90;;;;;;;13.10;67.24;102988.06;6075883;22;121736;-90
2022/01/13 01:21:34;;;;;;;34.80;7.45;;;;;;;13.20;67.00;103015.50;6127746;22;119559;-90
2022/01/13 01:24:25;;;;;;;35.13;7.15;;;;;;;13.19;66.53;102996.63;6076743;22;122433;-90
2022/01/13 01:26:53;;;;;;;31.95;7.07;;;;;;;13.19;67.97;103011.19;6076749;22;119687;-91
2022/01/13 01:29:34;;;;;;;36.25;7.07;;;;;;;13.23;66.93;103015.88;6102770;22;119846;-90
2022/01/13 01:32:00;;;;;;;31.10;7.07;;;;;;;13.08;66.67;102982.97;6081385;22;122130;-90
2022/01/13 01:37:18;;;;;;;34.72;6.50;;;;;;;13.16;67.12;102972.63;6075955;22;122220;-91
2022/01/13 01:39:48;;;;;;;34.67;6.55;;;;;;;13.29;65.93;103004.00;6051968;22;119548;-90
2022/01/13 01:42:18;;;;;;;41.33;7.35;;;;;;;13.27;67.60;102995.38;6053145;22;121038;-91
2022/01/13 01:44:51;;;;;;;32.85;6.97;;;;;;;13.33;67.85;102999.22;6075363;22;123510;-91
2022/01/13 01:47:19;;;;;;;43.97;7.82;;;;;;;13.20;67.51;102970.63;6077279;22;119704;-90
2022/01/13 01:49:56;;;;;;;30.70;6.97;;;;;;;13.17;68.41;102963.16;6076204;22;121097;-90
2022/01/13 01:52:21;;;;;;;37.45;7.85;;;;;;;13.31;67.42;102976.81;6075899;22;119479;-91
2022/01/13 01:54:48;;;;;;;37.60;6.93;;;;;;;13.39;68.29;103000.31;6057312;22;118901;-91
2022/01/13 01:57:15;;;;;;;27.35;6.32;;;;;;;13.29;67.95;102976.44;6052514;22;123241;-90
2022/01/13 01:59:44;;;;;;;26.55;6.18;;;;;;;13.48;68.05;102997.81;6100959;22;119646;-90
2022/01/13 02:02:12;;;;;;;29.83;6.65;;;;;;;13.43;67.61;103003.81;6102110;22;119280;-92
2022/01/13 02:04:44;;;;;;;35.78;7.68;;;;;;;13.47;66.40;103004.53;6076427;22;120477;-90
2022/01/13 02:07:13;;;;;;;35.20;6.88;;;;;;;12.99;65.75;102935.03;6076713;22;120147;-90
2022/01/13 02:09:44;;;;;;;35.08;6.43;;;;;;;13.16;67.07;102967.09;6052558;22;120942;-91
2022/01/13 02:12:18;;;;;;;36.45;6.32;;;;;;;13.39;67.13;102996.78;6051028;22;122834;-90
2022/01/13 02:17:24;;;;;;;39.60;7.50;;;;;;;13.07;66.10;102920.00;6081428;22;120739;-90
2022/01/13 02:19:53;;;;;;;33.63;6.30;;;;;;;13.43;67.01;102976.22;6053669;22;119250;-90
2022/01/13 02:22:20;;;;;;;28.70;6.95;;;;;;;13.14;67.60;102917.13;6102351;22;119616;-91
2022/01/13 02:24:46;;;;;;;26.73;6.40;;;;;;;13.40;69.10;102954.22;6101768;22;122166;-90
2022/01/13 02:27:12;;;;;;;30.88;5.88;;;;;;;13.48;67.46;102974.97;6077729;22;119256;-90
2022/01/13 02:29:41;;;;;;;32.40;6.38;;;;;;;13.40;66.20;102955.00;6053817;22;121065;-90
2022/01/13 02:32:08;;;;;;;31.35;7.43;;;;;;;13.42;66.41;102966.41;6100922;22;121835;-91
2022/01/13 02:34:34;;;;;;;35.85;6.60;;;;;;;13.46;66.78;102971.84;6098960;22;119170;-90
2022/01/13 02:37:00;;;;;;;40.92;7.40;;;;;;;13.43;65.81;102972.69;6051985;22;121155;-91
2022/01/13 02:39:33;;;;;;;31.95;6.00;;;;;;;13.42;67.71;102966.41;6080777;22;122073;-90
2022/01/13 02:42:01;;;;;;;29.38;6.07;;;;;;;13.30;68.00;102942.16;6052626;22;122457;-90
2022/01/13 02:44:27;;;;;;;36.47;7.32;;;;;;;13.44;66.78;102952.97;6076626;22;121237;-91
2022/01/13 02:49:21;;;;;;;34.42;5.85;;;;;;;13.31;67.34;102940.97;6077892;22;122053;-91
2022/01/13 02:51:51;;;;;;;36.17;7.10;;;;;;;13.36;67.08;102942.47;6076509;22;122422;-91
2022/01/13 02:54:17;;;;;;;35.45;6.45;;;;;;;13.36;67.76;102948.75;6077743;22;119280;-90
2022/01/13 02:56:44;;;;;;;36.03;7.28;;;;;;;13.35;67.47;102938.94;6102528;22;120151;-90
2022/01/13 02:59:09;;;;;;;35.63;7.43;;;;;;;13.45;67.16;102940.75;6107580;22;119308;-92
2022/01/13 03:01:35;;;;;;;35.05;7.75;;;;;;;13.04;66.46;102891.28;6078133;22;122059;-91
2022/01/13 03:04:05;;;;;;;34.83;6.78;;;;;;;13.41;66.77;102947.53;6077234;22;121472;-90
2022/01/13 03:06:34;;;;;;;33.22;7.03;;;;;;;13.38;66.99;102945.59;6077074;22;119558;-90
2022/01/13 03:09:04;;;;;;;27.75;6.30;;;;;;;13.24;67.50;102913.47;6102892;22;121196;-90
2022/01/13 03:11:35;;;;;;;31.85;6.57;;;;;;;13.35;67.20;102935.41;6076632;22;121824;-90
2022/01/13 03:14:03;;;;;;;33.30;7.32;;;;;;;13.20;67.14;102921.00;6053269;22;119808;-91
2022/01/13 03:16:31;;;;;;;32.35;6.55;;;;;;;13.37;67.81;102947.56;6077911;22;121231;-91
2022/01/13 03:18:56;;;;;;;34.72;6.47;;;;;;;13.38;67.94;102951.88;6102619;22;119448;-91
2022/01/13 03:21:22;;;;;;;37.45;7.68;;;;;;;13.36;66.88;102934.97;6082953;22;119195;-91
2022/01/13 03:23:49;;;;;;;30.27;7.00;;;;;;;13.41;67.61;102926.25;6077076;22;121508;-91
2022/01/13 03:26:15;;;;;;;29.58;6.97;;;;;;;13.19;68.07;102917.47;6077681;22;118917;-91
2022/01/13 03:29:05;;;;;;;41.40;7.40;;;;;;;13.32;66.31;102930.72;6052948;22;120991;-90
2022/01/13 03:31:31;;;;;;;33.72;6.32;;;;;;;13.25;67.79;102917.00;6053476;22;122343;-91
2022/01/13 03:33:59;;;;;;;30.38;6.20;;;;;;;13.34;68.56;102923.59;6101407;22;119249;-90
2022/01/13 03:36:28;;;;;;;34.47;6.93;;;;;;;13.36;67.73;102932.22;6077898;22;122030;-91
2022/01/13 03:38:54;;;;;;;30.27;6.55;;;;;;;13.39;69.30;102936.13;6076935;22;119264;-91
2022/01/13 03:41:21;;;;;;;35.20;6.70;;;;;;;13.41;68.41;102920.72;6053418;22;119511;-90
2022/01/13 03:43:47;;;;;;;42.10;7.78;;;;;;;13.42;67.08;102919.53;6080375;22;122321;-90
2022/01/13 03:46:14;;;;;;;34.92;6.97;;;;;;;13.42;66.67;102913.22;6076940;22;119417;-92
2022/01/13 03:48:41;;;;;;;35.05;7.18;;;;;;;13.43;66.61;102921.09;6052149;22;121213;-91
2022/01/13 03:51:07;;;;;;;38.38;7.28;;;;;;;13.42;68.38;102922.28;6077241;22;121824;-91
2022/01/13 03:53:38;;;;;;;38.65;7.80;;;;;;;13.50;67.70;102920.22;6052040;22;119517;-90
2022/01/13 03:56:42;;;;;;;31.23;7.88;;;;;;;13.49;67.17;102927.72;6053884;22;121504;-90
2022/01/13 03:59:32;;;;;;;37.28;8.13;;;;;;;13.50;67.63;102907.22;6052160;22;122182;-89
2022/01/13 04:02:00;;;;;;;36.13;6.45;;;;;;;13.49;66.75;102919.44;6077533;22;119898;-92
2022/01/13 04:04:28;;;;;;;32.95;6.97;;;;;;;13.49;66.52;102924.97;6077979;22;119885;-90
2022/01/13 04:07:11;;;;;;;35.85;7.50;;;;;;;13.49;66.72;102916.69;6081415;22;121895;-90
2022/01/13 04:09:39;;;;;;;34.53;6.00;;;;;;;13.50;67.73;102920.22;6103244;22;119621;-89
2022/01/13 04:12:07;;;;;;;37.53;7.68;;;;;;;13.47;66.36;102913.53;6077197;22;119379;-91
2022/01/13 04:14:49;;;;;;;33.25;6.85;;;;;;;13.48;65.86;102912.34;6077812;22;119207;-91
2022/01/13 04:17:18;;;;;;;35.47;7.18;;;;;;;13.34;65.93;102898.78;6077712;22;119546;-92
2022/01/13 04:19:48;;;;;;;30.45;7.00;;;;;;;13.20;66.46;102885.19;6052564;22;121363;-91
2022/01/13 04:27:03;;;;;;;36.22;7.18;;;;;;;13.35;67.22;102902.31;6126659;22;120953;-91
2022/01/13 04:29:37;;;;;;;28.73;5.72;;;;;;;13.24;68.35;102896.94;6075636;22;120792;-90
2022/01/13 04:32:06;;;;;;;32.55;7.03;;;;;;;13.34;67.24;102890.50;6083613;22;119256;-90
2022/01/13 04:34:34;;;;;;;38.97;7.47;;;;;;;13.35;66.94;102883.03;6124823;22;120003;-91
2022/01/13 04:37:03;;;;;;;42.65;7.55;;;;;;;13.25;66.47;102870.97;6052027;22;119464;-90
2022/01/13 04:39:32;;;;;;;33.85;7.15;;;;;;;13.41;66.66;102892.38;6076856;22;119700;-90
2022/01/13 04:41:58;;;;;;;34.15;6.97;;;;;;;13.20;67.68;102852.13;6076155;22;123221;-91
2022/01/13 04:44:27;;;;;;;35.90;6.80;;;;;;;13.32;68.22;102861.81;6099912;22;119625;-90
2022/01/13 04:46:54;;;;;;;31.42;6.75;;;;;;;13.22;66.59;102858.00;6052897;22;122067;-91
2022/01/13 04:49:21;;;;;;;36.72;7.22;;;;;;;13.14;65.79;102837.22;6101897;22;119236;-91
2022/01/13 04:51:50;;;;;;;30.88;7.30;;;;;;;13.37;65.74;102881.41;6051966;22;119591;-91
2022/01/13 04:54:16;;;;;;;32.95;6.95;;;;;;;13.10;66.78;102851.06;6106029;22;119531;-91
2022/01/13 04:56:45;;;;;;;35.65;7.50;;;;;;;13.07;68.00;102845.59;6053028;22;119630;-90
2022/01/13 04:59:11;;;;;;;31.83;6.32;;;;;;;13.17;67.95;102856.47;6053374;22;120886;-90
2022/01/13 05:01:38;;;;;;;42.08;8.38;;;;;;;13.44;65.88;102897.84;6077212;22;119522;-91
2022/01/13 05:04:05;;;;;;;32.70;6.72;;;;;;;13.32;66.36;102890.16;6101564;22;119476;-90
2022/01/13 05:06:34;;;;;;;30.13;6.20;;;;;;;13.10;67.22;102850.28;6102832;22;119298;-90
2022/01/13 05:09:01;;;;;;;33.63;7.28;;;;;;;13.41;65.93;102887.66;6076341;22;122433;-91
2022/01/13 05:11:27;;;;;;;31.38;7.22;;;;;;;13.34;65.27;102893.28;6053548;22;119615;-90
2022/01/13 05:13:55;;;;;;;32.72;5.82;;;;;;;13.35;66.64;102902.31;6057548;22;121150;-90
2022/01/13 05:19:09;;;;;;;30.73;6.20;;;;;;;13.22;66.15;102869.00;6101565;22;119923;-90
2022/01/13 05:24:14;;;;;;;31.08;6.15;;;;;;;12.89;65.51;102827.34;6101742;22;119354;-91
2022/01/13 05:26:40;;;;;;;33.58;5.82;;;;;;;13.16;66.66;102871.44;6078115;22;119280;-91
2022/01/13 05:29:06;;;;;;;30.42;6.60;;;;;;;13.19;66.00;102870.63;6075831;22;120239;-91
2022/01/13 05:31:34;;;;;;;29.88;6.72;;;;;;;13.35;66.22;102894.06;6053302;22;118666;-90
2022/01/13 05:34:03;;;;;;;28.77;6.25;;;;;;;13.08;66.63;102847.94;6052180;22;121265;-90
2022/01/13 05:36:31;;;;;;;38.67;6.40;;;;;;;13.38;65.91;102887.69;6059333;22;121433;-91
2022/01/13 05:39:00;;;;;;;37.35;6.60;;;;;;;13.20;66.49;102874.16;6077439;22;120919;-90
2022/01/13 05:41:25;;;;;;;31.17;5.97;;;;;;;13.41;68.15;102887.66;6052093;22;123050;-90
2022/01/13 05:43:54;;;;;;;28.38;6.40;;;;;;;13.01;67.31;102831.50;6101807;22;119160;-90
2022/01/13 05:46:22;;;;;;;27.92;6.05;;;;;;;13.46;67.85;102906.47;6052493;22;120927;-90
2022/01/13 05:48:47;;;;;;;32.05;6.40;;;;;;;13.29;66.97;102857.13;6076351;22;120411;-90
2022/01/13 05:51:13;;;;;;;32.63;6.75;;;;;;;13.37;66.02;102877.88;6101667;22;119234;-92
2022/01/13 05:53:38;;;;;;;29.80;5.82;;;;;;;13.38;65.95;102873.91;6101918;22;119708;-91
2022/01/13 05:56:04;;;;;;;29.52;6.38;;;;;;;13.41;65.37;102876.63;6052649;22;123522;-90
2022/01/13 05:58:30;;;;;;;24.35;5.78;;;;;;;13.48;66.08;102884.00;6082046;22;119713;-90
2022/01/13 06:00:58;;;;;;;31.00;5.70;;;;;;;13.46;67.35;102884.41;6101415;22;121894;-90
2022/01/13 06:03:26;;;;;;;33.55;6.00;;;;;;;13.36;66.24;102857.00;6076549;22;119041;-91
2022/01/13 06:05:51;;;;;;;31.95;6.75;;;;;;;13.27;66.16;102848.50;6052371;22;121938;-91
2022/01/13 06:08:17;;;;;;;29.08;6.32;;;;;;;13.14;65.74;102840.75;6052030;22;121808;-91
2022/01/13 06:10:45;;;;;;;32.78;6.57;;;;;;;13.32;65.01;102879.13;6100781;22;119521;-90
2022/01/13 06:13:14;;;;;;;30.90;6.45;;;;;;;13.29;64.94;102876.44;6077232;22;119265;-91
2022/01/13 06:15:42;;;;;;;29.40;6.47;;;;;;;13.37;65.69;102895.19;6100786;22;121912;-91
2022/01/13 06:18:13;;;;;;;35.83;6.95;;;;;;;13.09;65.96;102859.75;6101616;22;119648;-90
2022/01/13 06:20:40;;;;;;;32.75;6.88;;;;;;;13.03;66.22;102845.66;6056634;22;121046;-90
2022/01/13 06:23:10;;;;;;;26.27;5.47;;;;;;;13.17;68.00;102864.75;6100832;22;119031;-90
2022/01/13 06:25:35;;;;;;;25.67;6.32;;;;;;;13.30;67.62;102881.53;6101730;22;122332;-90
2022/01/13 06:28:06;;;;;;;26.65;6.13;;;;;;;13.15;66.36;102852.56;6052475;22;121885;-90
2022/01/13 06:30:32;;;;;;;28.00;6.72;;;;;;;13.04;66.73;102841.69;6076729;22;119104;-90
2022/01/13 06:33:01;;;;;;;31.10;6.50;;;;;;;12.94;67.05;102831.59;6101103;22;119483;-91
2022/01/13 06:35:29;;;;;;;32.58;7.00;;;;;;;12.89;65.95;102838.34;6099388;22;120458;-90
2022/01/13 06:37:58;;;;;;;29.73;5.88;;;;;;;13.24;65.72;102902.44;6101124;22;119419;-90
2022/01/13 06:40:24;;;;;;;32.33;6.55;;;;;;;13.11;65.00;102873.88;6052511;22;121082;-91
2022/01/13 06:42:50;;;;;;;27.90;6.28;;;;;;;13.29;64.64;102910.28;6105179;22;122896;-90
2022/01/13 06:45:16;;;;;;;31.88;6.72;;;;;;;13.01;65.08;102863.75;6077130;22;120725;-91
2022/01/13 06:47:44;;;;;;;30.33;6.75;;;;;;;13.14;65.23;102900.59;6076423;22;120849;-91
2022/01/13 06:50:13;;;;;;;33.15;7.32;;;;;;;13.26;65.83;102913.88;6076757;22;119400;-90
2022/01/13 06:52:39;;;;;;;28.52;6.68;;;;;;;13.24;64.88;102910.72;6100889;22;121498;-90
2022/01/13 06:55:05;;;;;;;28.95;6.80;;;;;;;13.16;65.80;102903.72;6076049;22;122375;-91
2022/01/13 06:57:31;;;;;;;30.30;6.47;;;;;;;13.18;65.07;102912.38;6077237;22;119146;-90
2022/01/13 06:59:56;;;;;;;31.27;6.97;;;;;;;13.13;65.01;102899.03;6077010;22;122550;-89
2022/01/13 07:02:27;;;;;;;24.88;6.45;;;;;;;12.86;65.87;102863.97;6076666;22;121959;-91
2022/01/13 07:04:56;;;;;;;32.53;6.72;;;;;;;13.21;65.73;102897.78;6082957;22;119687;-92
2022/01/13 07:07:22;;;;;;;32.67;6.50;;;;;;;12.96;65.87;102873.28;6076951;22;122019;-90
2022/01/13 07:09:47;;;;;;;28.48;7.60;;;;;;;13.09;68.01;102890.06;6103082;22;119533;-90
2022/01/13 07:12:13;;;;;;;31.90;6.88;;;;;;;12.79;66.92;102842.03;6101887;22;119494;-90
2022/01/13 07:14:51;;;;;;;32.25;6.88;;;;;;;12.77;66.92;102833.38;6079329;22;121505;-91
2022/01/13 07:17:17;;;;;;;32.22;6.40;;;;;;;12.97;67.82;102863.03;6052525;22;119662;-91
2022/01/13 07:19:45;;;;;;;28.10;6.45;;;;;;;13.21;65.85;102895.78;6053446;22;120493;-89
2022/01/13 07:22:14;;;;;;;35.83;7.00;;;;;;;13.12;65.50;102872.69;6101484;22;120493;-90
2022/01/13 07:24:43;;;;;;;28.42;6.45;;;;;;;13.05;66.50;102875.53;6105706;22;118791;-91
2022/01/13 07:27:09;;;;;;;29.88;6.40;;;;;;;13.28;65.88;102905.19;6076943;22;121533;-91
2022/01/13 07:29:35;;;;;;;26.10;5.93;;;;;;;13.35;67.23;102905.06;6052397;22;119237;-91
2022/01/13 07:32:01;;;;;;;32.80;6.57;;;;;;;13.20;66.62;102883.22;6076757;22;122048;-90
2022/01/13 07:34:32;;;;;;;30.42;6.25;;;;;;;13.35;65.32;102897.59;6075734;22;122110;-90
2022/01/13 07:36:57;;;;;;;29.15;6.70;;;;;;;13.18;65.63;102862.78;6075574;22;119522;-91
2022/01/13 07:39:23;;;;;;;32.28;5.95;;;;;;;13.18;66.64;102869.06;6052638;22;121042;-90
2022/01/13 07:41:49;;;;;;;29.85;6.40;;;;;;;13.33;65.18;102894.47;6099101;22;122832;-90
2022/01/13 07:44:18;;;;;;;28.98;6.47;;;;;;;13.43;65.94;102901.78;6051603;22;119376;-90
2022/01/13 07:46:46;;;;;;;29.73;6.35;;;;;;;13.31;65.20;102893.31;6081317;22;119341;-90
2022/01/13 07:49:12;;;;;;;29.45;6.03;;;;;;;13.29;64.65;102879.97;6052202;22;119460;-90
2022/01/13 07:51:40;;;;;;;33.78;6.22;;;;;;;13.44;66.09;102906.09;6102308;22;120488;-90
2022/01/13 07:54:05;;;;;;;31.08;6.80;;;;;;;13.43;65.33;102923.84;6051062;22;122084;-90
2022/01/13 07:56:34;;;;;;;30.75;6.15;;;;;;;13.18;66.59;102880.09;6051883;22;119236;-91
2022/01/13 07:59:00;;;;;;;33.40;7.13;;;;;;;13.32;66.47;102901.19;6053150;22;121350;-90
2022/01/13 08:01:48;;;;;;;35.92;7.05;;;;;;;13.08;64.85;102864.47;6083523;22;121198;-90
2022/01/13 08:04:17;;;;;;;28.42;6.10;;;;;;;13.52;68.01;102926.09;6051981;22;119533;-91
2022/01/13 08:06:42;;;;;;;32.80;5.93;;;;;;;13.24;66.91;102877.66;6100440;22;119699;-90
2022/01/13 08:09:08;;;;;;;29.02;6.60;;;;;;;13.16;66.31;102854.91;6106088;22;120530;-91
2022/01/13 08:11:34;;;;;;;28.83;6.25;;;;;;;13.28;66.73;102872.88;6127946;22;120241;-90
2022/01/13 08:14:02;;;;;;;30.25;6.07;;;;;;;13.39;66.17;102892.00;6049512;22;122702;-90
2022/01/13 08:16:34;;;;;;;32.22;6.10;;;;;;;13.65;67.22;102918.03;6050437;22;119571;-90
2022/01/13 08:21:46;;;;;;;;;;;;;;;13.69;66.22;102924.25;6098500;22;120045;-90
2022/01/13 08:24:12;;;;;;;27.60;6.05;;;;;;;13.65;66.72;102907.75;6101166;22;119480;-89
2022/01/13 08:26:37;;;;;;;34.60;6.75;;;;;;;13.75;65.90;102917.09;6076585;22;120875;-89
2022/01/13 08:29:04;;;;;;;25.80;5.70;;;;;;;13.64;66.64;102905.44;6051934;22;121512;-90
2022/01/13 08:31:30;;;;;;;28.23;6.13;;;;;;;13.63;65.88;102909.38;6105778;22;119551;-90
2022/01/13 08:33:55;;;;;;;30.80;6.15;;;;;;;13.56;65.62;102887.44;6075178;22;123040;-90
2022/01/13 08:36:21;;;;;;;32.42;5.88;;;;;;;13.79;66.99;102912.28;6101568;22;119532;-90
2022/01/13 08:38:49;;;;;;;26.60;6.38;;;;;;;13.80;65.07;102914.63;6051315;22;121439;-90
2022/01/13 08:41:16;;;;;;;33.97;6.78;;;;;;;13.80;64.44;102902.81;6100620;22;120137;-91
2022/01/13 08:43:41;;;;;;;29.58;6.13;;;;;;;13.61;64.00;102875.94;6047301;22;120057;-89
2022/01/13 08:46:07;;;;;;;30.80;6.15;;;;;;;13.62;64.75;102891.28;6073179;22;121320;-89
2022/01/13 08:48:34;;;;;;;28.17;6.00;;;;;;;13.64;65.73;102891.63;6074084;22;123014;-89
2022/01/13 08:51:04;;;;;;;29.08;6.35;;;;;;;13.64;65.01;102880.59;6050194;22;119661;-90
2022/01/13 08:53:30;;;;;;;26.70;5.90;;;;;;;13.80;65.72;102908.34;6078361;22;122574;-90
2022/01/13 08:55:56;;;;;;;25.20;5.50;;;;;;;13.66;66.47;102880.97;6098529;22;119927;-90
2022/01/13 08:58:25;;;;;;;30.48;6.72;;;;;;;13.83;65.21;102897.25;6049598;22;120875;-90
2022/01/13 09:00:56;;;;;;;27.70;6.05;;;;;;;13.78;63.84;102899.69;6071333;22;122258;-90
2022/01/13 09:03:22;;;;;;;28.00;6.45;;;;;;;13.62;64.23;102874.72;6097440;22;119340;-89
2022/01/13 09:05:48;;;;;;;32.55;5.93;;;;;;;13.82;64.68;102908.69;6049682;22;120995;-89
2022/01/13 09:08:14;;;;;;;25.08;5.88;;;;;;;13.85;64.20;102904.31;6073157;22;123327;-89
2022/01/13 09:10:43;;;;;;;28.90;6.43;;;;;;;13.70;64.75;102884.44;6074835;22;119463;-90
2022/01/13 09:13:12;;;;;;;26.48;5.45;;;;;;;13.89;65.33;102908.56;6101867;22;119598;-89
2022/01/13 09:15:43;;;;;;;31.05;5.65;;;;;;;13.78;64.67;102906.00;6126418;22;119347;-90
2022/01/13 09:18:14;;;;;;;29.30;6.32;;;;;;;13.86;64.32;102914.94;6074337;22;122123;-89
2022/01/13 09:20:43;;;;;;;24.33;6.00;;;;;;;13.85;63.90;102918.88;6099828;22;119835;-89
2022/01/13 09:23:10;;;;;;;24.77;5.53;;;;;;;13.82;64.32;102917.75;6072775;22;119640;-90
2022/01/13 09:25:36;;;;;;;26.50;5.63;;;;;;;13.61;66.57;102892.47;6098845;22;121443;-89
2022/01/13 09:28:07;;;;;;;33.10;5.53;;;;;;;13.86;64.75;102925.97;6072154;22;120952;-90
2022/01/13 09:30:34;;;;;;;25.63;5.30;;;;;;;13.65;64.49;102904.22;6074222;22;119196;-90
2022/01/13 09:33:00;;;;;;;24.00;5.43;;;;;;;13.72;64.06;102912.38;6097129;22;119736;-89
2022/01/13 09:35:29;;;;;;;29.65;5.65;;;;;;;13.48;64.33;102884.00;6103356;22;119408;-91
2022/01/13 09:37:55;;;;;;;29.15;5.70;;;;;;;13.59;65.67;102892.91;6074161;22;119959;-90
2022/01/13 09:40:21;;;;;;;30.08;5.63;;;;;;;13.71;64.87;102919.09;6098019;22;119917;-90
2022/01/13 09:42:48;;;;;;;26.73;6.03;;;;;;;13.48;64.59;102890.28;6098309;22;119562;-90
2022/01/13 09:45:17;;;;;;;26.35;5.85;;;;;;;13.63;66.48;102907.41;6124377;22;119760;-88
2022/01/13 09:47:44;;;;;;;27.27;5.68;;;;;;;13.74;67.66;102919.06;6124183;22;119356;-89
2022/01/13 09:50:13;;;;;;;27.92;5.63;;;;;;;13.78;67.17;102919.78;6073584;22;119390;-89
2022/01/13 09:52:41;;;;;;;27.60;5.70;;;;;;;13.81;66.48;102932.75;6072983;22;121073;-89
2022/01/13 09:55:09;;;;;;;29.17;5.88;;;;;;;13.66;65.00;102912.09;6047872;22;122285;-91
2022/01/13 09:57:37;;;;;;;26.75;6.05;;;;;;;13.35;65.49;102872.78;6078378;22;119386;-89
2022/01/13 10:00:04;;;;;;;27.75;5.70;;;;;;;13.55;64.09;102894.16;6097427;22;119360;-89
2022/01/13 10:02:30;;;;;;;28.85;5.60;;;;;;;13.70;66.00;102923.06;6098454;22;119361;-89
2022/01/13 10:04:56;;;;;;;24.73;5.10;;;;;;;13.60;66.22;102897.22;6098621;22;119723;-88
2022/01/13 10:07:32;;;;;;;25.02;5.38;;;;;;;13.84;66.85;102914.56;6097827;22;122391;-89
2022/01/13 10:10:00;;;;;;;27.05;5.55;;;;;;;13.76;65.87;102913.91;6074634;22;119631;-89
2022/01/13 10:12:32;;;;;;;31.42;5.47;;;;;;;13.81;65.36;102927.22;6072699;22;119677;-89
2022/01/13 10:17:26;;;;;;;27.00;5.65;;;;;;;13.51;64.21;102885.94;6098696;22;119355;-90
2022/01/13 10:19:55;;;;;;;27.13;5.53;;;;;;;13.64;64.22;102920.00;6078977;22;119155;-89
2022/01/13 10:22:30;;;;;;;29.35;5.70;;;;;;;13.71;63.50;102927.38;6072495;22;119927;-91
2022/01/13 10:24:58;;;;;;;29.23;5.55;;;;;;;13.51;64.82;102914.28;6074578;22;122653;-90
2022/01/13 10:27:29;;;;;;;27.52;5.88;;;;;;;13.47;64.08;102896.22;6097805;22;120087;-89
2022/01/13 10:30:02;;;;;;;22.70;5.70;;;;;;;13.69;65.46;102930.56;6074115;22;119684;-90
2022/01/13 10:32:39;;;;;;;27.97;6.07;;;;;;;13.56;63.82;102926.81;6050818;22;121247;-91
2022/01/13 10:35:11;;;;;;;29.10;5.95;;;;;;;13.60;64.34;102932.28;6072427;22;123928;-90
2022/01/13 10:37:44;;;;;;;32.67;5.63;;;;;;;13.11;64.15;102851.84;6074603;22;119590;-92
2022/01/13 10:40:18;;;;;;;30.02;5.60;;;;;;;13.35;66.03;102888.53;6099532;22;119148;-89
2022/01/13 10:43:09;;;;;;;20.80;5.22;;;;;;;13.42;66.07;102893.94;6078455;22;123509;-89
2022/01/13 10:45:40;;;;;;;34.53;5.63;;;;;;;13.43;64.58;102892.75;6057106;22;121236;-89
2022/01/13 10:48:24;;;;;;;25.10;5.57;;;;;;;13.57;65.48;102909.09;6049067;22;123971;-89
2022/01/13 10:50:54;;;;;;;26.55;5.63;;;;;;;13.51;65.05;102896.97;6099374;22;119352;-89
2022/01/13 10:53:25;;;;;;;29.35;5.80;;;;;;;13.56;63.81;102910.28;6073056;22;121057;-89
2022/01/13 10:55:54;;;;;;;28.95;6.03;;;;;;;13.48;63.77;102909.59;6074483;22;122101;-88
2022/01/13 10:58:29;;;;;;;28.83;5.18;;;;;;;13.39;64.08;102912.09;6125177;22;119570;-89
2022/01/13 11:00:56;;;;;;;27.13;5.72;;;;;;;13.37;64.01;102908.19;6099710;22;120701;-90
2022/01/13 11:03:24;;;;;;;27.40;5.60;;;;;;;13.15;64.06;102886.41;6097358;22;119252;-89
2022/01/13 11:05:56;;;;;;;34.15;5.88;;;;;;;13.31;63.86;102907.88;6079425;22;119130;-90
2022/01/13 11:08:32;;;;;;;25.92;4.97;;;;;;;13.26;64.30;102888.28;6050955;22;122037;-92
2022/01/13 11:11:00;;;;;;;30.65;5.65;;;;;;;13.30;64.15;102892.53;6101435;22;119322;-89
2022/01/13 11:13:28;;;;;;;25.73;5.40;;;;;;;13.40;64.33;102890.81;6073589;22;122589;-90
2022/01/13 11:15:58;;;;;;;30.45;6.38;;;;;;;13.34;64.24;102887.75;6073003;22;121774;-90
2022/01/13 11:18:29;;;;;;;27.80;5.47;;;;;;;13.42;64.19;102893.94;6099233;22;119498;-89
2022/01/13 11:20:57;;;;;;;23.05;5.43;;;;;;;13.41;64.57;102889.63;6071894;22;119385;-89
2022/01/13 11:23:23;;;;;;;25.27;5.68;;;;;;;13.56;64.64;102904.75;6072320;22;122459;-90
2022/01/13 11:25:56;;;;;;;30.63;6.28;;;;;;;13.60;65.17;102888.16;6054184;22;119212;-90
2022/01/13 11:28:23;;;;;;;27.48;5.05;;;;;;;13.64;66.53;102894.41;6072888;22;121344;-90
2022/01/13 11:30:52;;;;;;;32.15;5.60;;;;;;;13.69;64.46;102897.44;6098561;22;119820;-89
2022/01/13 11:33:19;;;;;;;31.23;6.13;;;;;;;13.71;65.84;102891.53;6072386;22;121005;-89
2022/01/13 11:35:53;;;;;;;28.13;5.65;;;;;;;13.36;64.52;102824.72;6075093;22;121798;-90
2022/01/13 11:38:20;;;;;;;24.75;4.85;;;;;;;13.41;66.26;102832.50;6098668;22;119424;-89
2022/01/13 11:40:48;;;;;;;28.30;5.40;;;;;;;13.55;64.39;102836.25;6074904;22;120858;-90
2022/01/13 11:43:38;;;;;;;29.85;6.13;;;;;;;13.78;67.08;102855.56;6099846;22;122182;-92
2022/01/13 11:46:19;;;;;;;30.55;5.70;;;;;;;13.96;66.97;102867.09;6052407;22;119807;-90